sensor_id;sensor_type;location;lat;lon;timestamp;P1;durP1;ratioP1;P2;durP2;ratioP2
69358;SDS011;56520;49.066;8.660;2022-12-07T00:01:26;6.45;;;2.85;;
69358;SDS011;56520;49.066;8.660;2022-12-07T00:03:54;7.07;;;3.10;;
69358;SDS011;56520;49.066;8.660;2022-12-07T00:06:29;6.80;;;2.78;;
69358;SDS011;56520;49.066;8.660;2022-12-07T00:11:20;7.60;;;2.83;;
69358;SDS011;56520;49.066;8.660;2022-12-07T00:13:47;6.85;;;2.40;;
69358;SDS011;56520;49.066;8.660;2022-12-07T00:16:17;7.22;;;3.42;;
69358;SDS011;56520;49.066;8.660;2022-12-07T00:18:45;6.05;;;2.60;;
69358;SDS011;56520;49.066;8.660;2022-12-07T00:23:36;5.77;;;2.53;;
69358;SDS011;56520;49.066;8.660;2022-12-07T00:26:03;7.90;;;2.75;;
69358;SDS011;56520;49.066;8.660;2022-12-07T00:28:29;6.93;;;3.05;;
69358;SDS011;56520;49.066;8.660;2022-12-07T00:33:31;6.57;;;2.50;;
69358;SDS011;56520;49.066;8.660;2022-12-07T00:35:58;5.50;;;2.10;;
69358;SDS011;56520;49.066;8.660;2022-12-07T00:38:23;8.25;;;2.75;;
69358;SDS011;56520;49.066;8.660;2022-12-07T00:43:24;6.90;;;3.13;;
69358;SDS011;56520;49.066;8.660;2022-12-07T00:45:50;6.47;;;2.63;;
69358;SDS011;56520;49.066;8.660;2022-12-07T00:48:16;8.05;;;2.88;;
69358;SDS011;56520;49.066;8.660;2022-12-07T00:50:41;6.72;;;2.42;;
69358;SDS011;56520;49.066;8.660;2022-12-07T00:53:07;5.53;;;2.50;;
69358;SDS011;56520;49.066;8.660;2022-12-07T00:57:58;5.47;;;1.90;;
69358;SDS011;56520;49.066;8.660;2022-12-07T01:00:27;6.18;;;2.28;;
69358;SDS011;56520;49.066;8.660;2022-12-07T01:05:17;5.03;;;1.90;;
69358;SDS011;56520;49.066;8.660;2022-12-07T01:10:09;6.95;;;2.78;;
69358;SDS011;56520;49.066;8.660;2022-12-07T01:15:00;5.57;;;2.25;;
69358;SDS011;56520;49.066;8.660;2022-12-07T01:17:25;7.43;;;2.72;;
69358;SDS011;56520;49.066;8.660;2022-12-07T01:19:50;7.25;;;2.67;;
69358;SDS011;56520;49.066;8.660;2022-12-07T01:24:41;7.28;;;3.00;;
69358;SDS011;56520;49.066;8.660;2022-12-07T01:27:07;6.22;;;2.13;;
69358;SDS011;56520;49.066;8.660;2022-12-07T01:29:32;6.00;;;2.50;;
69358;SDS011;56520;49.066;8.660;2022-12-07T01:31:57;6.63;;;2.45;;
69358;SDS011;56520;49.066;8.660;2022-12-07T01:36:54;5.00;;;2.22;;
69358;SDS011;56520;49.066;8.660;2022-12-07T01:41:45;5.68;;;2.38;;
69358;SDS011;56520;49.066;8.660;2022-12-07T01:44:21;4.57;;;2.00;;
69358;SDS011;56520;49.066;8.660;2022-12-07T01:46:49;5.35;;;1.95;;
69358;SDS011;56520;49.066;8.660;2022-12-07T01:51:46;5.72;;;2.03;;
69358;SDS011;56520;49.066;8.660;2022-12-07T01:54:13;5.90;;;2.38;;
69358;SDS011;56520;49.066;8.660;2022-12-07T01:56:41;7.00;;;2.70;;
69358;SDS011;56520;49.066;8.660;2022-12-07T01:59:12;9.07;;;3.10;;
69358;SDS011;56520;49.066;8.660;2022-12-07T02:01:38;8.63;;;2.70;;
69358;SDS011;56520;49.066;8.660;2022-12-07T02:06:29;6.50;;;2.53;;
69358;SDS011;56520;49.066;8.660;2022-12-07T02:08:55;7.53;;;2.90;;
69358;SDS011;56520;49.066;8.660;2022-12-07T02:13:46;6.35;;;2.70;;
69358;SDS011;56520;49.066;8.660;2022-12-07T02:16:25;7.25;;;2.83;;
69358;SDS011;56520;49.066;8.660;2022-12-07T02:24:55;5.47;;;2.38;;
69358;SDS011;56520;49.066;8.660;2022-12-07T02:27:40;7.82;;;2.92;;
69358;SDS011;56520;49.066;8.660;2022-12-07T02:30:10;6.38;;;2.70;;
69358;SDS011;56520;49.066;8.660;2022-12-07T02:32:40;7.65;;;2.92;;
69358;SDS011;56520;49.066;8.660;2022-12-07T02:38:09;7.85;;;3.13;;
69358;SDS011;56520;49.066;8.660;2022-12-07T02:48:00;6.43;;;2.42;;
69358;SDS011;56520;49.066;8.660;2022-12-07T02:50:27;5.90;;;2.25;;
69358;SDS011;56520;49.066;8.660;2022-12-07T02:52:55;6.80;;;2.90;;
69358;SDS011;56520;49.066;8.660;2022-12-07T02:57:54;6.43;;;2.78;;
69358;SDS011;56520;49.066;8.660;2022-12-07T03:00:44;7.75;;;2.92;;
69358;SDS011;56520;49.066;8.660;2022-12-07T03:03:31;6.65;;;3.20;;
69358;SDS011;56520;49.066;8.660;2022-12-07T03:11:14;9.48;;;3.00;;
69358;SDS011;56520;49.066;8.660;2022-12-07T03:14:08;7.00;;;3.22;;
69358;SDS011;56520;49.066;8.660;2022-12-07T03:16:40;8.23;;;2.90;;
69358;SDS011;56520;49.066;8.660;2022-12-07T03:19:30;5.13;;;2.00;;
69358;SDS011;56520;49.066;8.660;2022-12-07T03:22:05;7.35;;;2.88;;
69358;SDS011;56520;49.066;8.660;2022-12-07T03:27:34;6.15;;;2.60;;
69358;SDS011;56520;49.066;8.660;2022-12-07T03:30:07;6.90;;;2.60;;
69358;SDS011;56520;49.066;8.660;2022-12-07T03:32:37;7.05;;;2.58;;
69358;SDS011;56520;49.066;8.660;2022-12-07T03:37:59;6.65;;;2.45;;
69358;SDS011;56520;49.066;8.660;2022-12-07T03:40:36;6.97;;;3.03;;
69358;SDS011;56520;49.066;8.660;2022-12-07T03:43:02;7.35;;;2.40;;
69358;SDS011;56520;49.066;8.660;2022-12-07T03:48:33;5.10;;;2.20;;
69358;SDS011;56520;49.066;8.660;2022-12-07T03:53:40;7.65;;;2.50;;
69358;SDS011;56520;49.066;8.660;2022-12-07T03:56:13;6.38;;;3.03;;
69358;SDS011;56520;49.066;8.660;2022-12-07T03:58:39;7.32;;;3.33;;
69358;SDS011;56520;49.066;8.660;2022-12-07T04:01:06;7.57;;;3.08;;
69358;SDS011;56520;49.066;8.660;2022-12-07T04:05:57;6.93;;;2.83;;
69358;SDS011;56520;49.066;8.660;2022-12-07T04:08:23;6.25;;;2.97;;
69358;SDS011;56520;49.066;8.660;2022-12-07T04:13:15;6.78;;;2.75;;
69358;SDS011;56520;49.066;8.660;2022-12-07T04:18:05;5.80;;;2.38;;
69358;SDS011;56520;49.066;8.660;2022-12-07T04:20:31;7.15;;;2.83;;
69358;SDS011;56520;49.066;8.660;2022-12-07T04:22:57;8.57;;;3.08;;
69358;SDS011;56520;49.066;8.660;2022-12-07T04:27:47;10.13;;;3.37;;
69358;SDS011;56520;49.066;8.660;2022-12-07T04:32:38;5.57;;;2.20;;
69358;SDS011;56520;49.066;8.660;2022-12-07T04:35:04;6.78;;;2.60;;
69358;SDS011;56520;49.066;8.660;2022-12-07T04:37:30;5.82;;;2.45;;
69358;SDS011;56520;49.066;8.660;2022-12-07T04:42:20;6.73;;;3.07;;
69358;SDS011;56520;49.066;8.660;2022-12-07T04:47:11;8.43;;;3.23;;
69358;SDS011;56520;49.066;8.660;2022-12-07T04:49:36;7.72;;;2.83;;
69358;SDS011;56520;49.066;8.660;2022-12-07T04:52:02;9.15;;;3.22;;
69358;SDS011;56520;49.066;8.660;2022-12-07T04:54:27;8.52;;;2.95;;
69358;SDS011;56520;49.066;8.660;2022-12-07T04:56:53;6.35;;;3.00;;
69358;SDS011;56520;49.066;8.660;2022-12-07T05:01:43;5.20;;;2.50;;
69358;SDS011;56520;49.066;8.660;2022-12-07T05:04:09;6.35;;;2.65;;
69358;SDS011;56520;49.066;8.660;2022-12-07T05:09:00;7.23;;;2.87;;
69358;SDS011;56520;49.066;8.660;2022-12-07T05:11:26;6.55;;;3.55;;
69358;SDS011;56520;49.066;8.660;2022-12-07T05:14:04;8.40;;;3.03;;
69358;SDS011;56520;49.066;8.660;2022-12-07T05:16:41;8.05;;;3.38;;
69358;SDS011;56520;49.066;8.660;2022-12-07T05:19:08;7.88;;;3.15;;
69358;SDS011;56520;49.066;8.660;2022-12-07T05:21:35;8.70;;;3.75;;
69358;SDS011;56520;49.066;8.660;2022-12-07T05:24:02;8.60;;;3.65;;
69358;SDS011;56520;49.066;8.660;2022-12-07T05:26:28;9.55;;;3.15;;
69358;SDS011;56520;49.066;8.660;2022-12-07T05:31:20;7.82;;;3.35;;
69358;SDS011;56520;49.066;8.660;2022-12-07T05:33:46;11.30;;;4.10;;
69358;SDS011;56520;49.066;8.660;2022-12-07T05:38:37;6.20;;;2.75;;
69358;SDS011;56520;49.066;8.660;2022-12-07T05:41:03;8.68;;;3.80;;
69358;SDS011;56520;49.066;8.660;2022-12-07T05:43:29;7.47;;;3.17;;
69358;SDS011;56520;49.066;8.660;2022-12-07T05:45:55;9.52;;;3.53;;
69358;SDS011;56520;49.066;8.660;2022-12-07T05:48:21;15.73;;;6.03;;
69358;SDS011;56520;49.066;8.660;2022-12-07T05:50:50;20.58;;;8.38;;
69358;SDS011;56520;49.066;8.660;2022-12-07T05:53:16;18.83;;;7.18;;
69358;SDS011;56520;49.066;8.660;2022-12-07T05:58:07;8.93;;;4.07;;
69358;SDS011;56520;49.066;8.660;2022-12-07T06:00:51;11.15;;;4.45;;
69358;SDS011;56520;49.066;8.660;2022-12-07T06:03:19;9.75;;;3.75;;
69358;SDS011;56520;49.066;8.660;2022-12-07T06:08:10;8.95;;;3.35;;
69358;SDS011;56520;49.066;8.660;2022-12-07T06:10:35;7.38;;;3.15;;
69358;SDS011;56520;49.066;8.660;2022-12-07T06:13:01;6.63;;;3.05;;
69358;SDS011;56520;49.066;8.660;2022-12-07T06:15:29;7.10;;;2.90;;
69358;SDS011;56520;49.066;8.660;2022-12-07T06:20:19;8.77;;;3.63;;
69358;SDS011;56520;49.066;8.660;2022-12-07T06:22:45;7.05;;;2.78;;
69358;SDS011;56520;49.066;8.660;2022-12-07T06:27:35;6.60;;;3.03;;
69358;SDS011;56520;49.066;8.660;2022-12-07T06:30:01;8.50;;;4.00;;
69358;SDS011;56520;49.066;8.660;2022-12-07T06:32:31;8.60;;;3.97;;
69358;SDS011;56520;49.066;8.660;2022-12-07T06:34:57;9.10;;;3.88;;
69358;SDS011;56520;49.066;8.660;2022-12-07T06:39:48;6.00;;;2.73;;
69358;SDS011;56520;49.066;8.660;2022-12-07T06:44:39;8.23;;;3.10;;
69358;SDS011;56520;49.066;8.660;2022-12-07T06:47:04;6.75;;;3.13;;
69358;SDS011;56520;49.066;8.660;2022-12-07T06:49:30;7.65;;;3.15;;
69358;SDS011;56520;49.066;8.660;2022-12-07T06:54:21;8.13;;;3.37;;
69358;SDS011;56520;49.066;8.660;2022-12-07T06:56:46;8.00;;;3.22;;
69358;SDS011;56520;49.066;8.660;2022-12-07T07:01:37;7.85;;;2.83;;
69358;SDS011;56520;49.066;8.660;2022-12-07T07:06:28;7.13;;;2.83;;
69358;SDS011;56520;49.066;8.660;2022-12-07T07:11:19;7.27;;;2.70;;
69358;SDS011;56520;49.066;8.660;2022-12-07T07:16:10;9.45;;;3.72;;
69358;SDS011;56520;49.066;8.660;2022-12-07T07:18:36;13.23;;;4.97;;
69358;SDS011;56520;49.066;8.660;2022-12-07T07:21:01;21.25;;;9.20;;
69358;SDS011;56520;49.066;8.660;2022-12-07T07:23:27;12.02;;;4.25;;
69358;SDS011;56520;49.066;8.660;2022-12-07T07:25:53;7.07;;;2.63;;
69358;SDS011;56520;49.066;8.660;2022-12-07T07:30:44;5.93;;;2.55;;
69358;SDS011;56520;49.066;8.660;2022-12-07T07:35:35;6.28;;;2.95;;
69358;SDS011;56520;49.066;8.660;2022-12-07T07:38:00;9.07;;;3.53;;
69358;SDS011;56520;49.066;8.660;2022-12-07T07:40:26;6.55;;;2.65;;
69358;SDS011;56520;49.066;8.660;2022-12-07T07:42:54;7.72;;;3.22;;
69358;SDS011;56520;49.066;8.660;2022-12-07T07:45:20;8.43;;;2.67;;
69358;SDS011;56520;49.066;8.660;2022-12-07T07:47:47;8.23;;;2.83;;
69358;SDS011;56520;49.066;8.660;2022-12-07T07:52:38;8.05;;;2.55;;
69358;SDS011;56520;49.066;8.660;2022-12-07T07:55:04;6.53;;;2.90;;
69358;SDS011;56520;49.066;8.660;2022-12-07T07:57:30;9.23;;;3.20;;
69358;SDS011;56520;49.066;8.660;2022-12-07T07:59:56;6.18;;;2.50;;
69358;SDS011;56520;49.066;8.660;2022-12-07T08:02:22;5.90;;;2.22;;
69358;SDS011;56520;49.066;8.660;2022-12-07T08:04:48;6.72;;;2.75;;
69358;SDS011;56520;49.066;8.660;2022-12-07T08:09:39;5.10;;;2.15;;
69358;SDS011;56520;49.066;8.660;2022-12-07T08:14:30;7.32;;;2.20;;
69358;SDS011;56520;49.066;8.660;2022-12-07T08:19:21;5.88;;;2.28;;
69358;SDS011;56520;49.066;8.660;2022-12-07T08:21:46;5.32;;;2.22;;
69358;SDS011;56520;49.066;8.660;2022-12-07T08:24:12;6.72;;;2.63;;
69358;SDS011;56520;49.066;8.660;2022-12-07T08:29:03;5.40;;;2.30;;
69358;SDS011;56520;49.066;8.660;2022-12-07T08:33:54;5.67;;;2.30;;
69358;SDS011;56520;49.066;8.660;2022-12-07T08:38:46;8.68;;;2.72;;
69358;SDS011;56520;49.066;8.660;2022-12-07T08:43:37;5.60;;;2.10;;
69358;SDS011;56520;49.066;8.660;2022-12-07T08:48:31;4.63;;;2.03;;
69358;SDS011;56520;49.066;8.660;2022-12-07T08:50:58;7.43;;;2.67;;
69358;SDS011;56520;49.066;8.660;2022-12-07T08:55:49;6.15;;;2.35;;
69358;SDS011;56520;49.066;8.660;2022-12-07T08:58:15;9.57;;;3.38;;
69358;SDS011;56520;49.066;8.660;2022-12-07T09:00:40;6.70;;;2.45;;
69358;SDS011;56520;49.066;8.660;2022-12-07T09:05:32;8.10;;;3.10;;
69358;SDS011;56520;49.066;8.660;2022-12-07T09:08:00;7.43;;;2.67;;
69358;SDS011;56520;49.066;8.660;2022-12-07T09:10:26;8.55;;;2.63;;
69358;SDS011;56520;49.066;8.660;2022-12-07T09:12:52;6.55;;;2.70;;
69358;SDS011;56520;49.066;8.660;2022-12-07T09:17:43;7.73;;;2.47;;
69358;SDS011;56520;49.066;8.660;2022-12-07T09:20:09;7.97;;;2.67;;
69358;SDS011;56520;49.066;8.660;2022-12-07T09:22:34;6.20;;;2.40;;
69358;SDS011;56520;49.066;8.660;2022-12-07T09:25:00;6.63;;;2.45;;
69358;SDS011;56520;49.066;8.660;2022-12-07T09:27:26;6.82;;;2.72;;
69358;SDS011;56520;49.066;8.660;2022-12-07T09:29:52;6.70;;;2.47;;
69358;SDS011;56520;49.066;8.660;2022-12-07T09:34:43;7.03;;;2.85;;
69358;SDS011;56520;49.066;8.660;2022-12-07T09:37:09;6.05;;;2.40;;
69358;SDS011;56520;49.066;8.660;2022-12-07T09:39:34;5.72;;;2.33;;
69358;SDS011;56520;49.066;8.660;2022-12-07T09:42:05;9.05;;;3.15;;
69358;SDS011;56520;49.066;8.660;2022-12-07T09:44:32;7.00;;;3.10;;
69358;SDS011;56520;49.066;8.660;2022-12-07T09:46:59;6.78;;;2.80;;
69358;SDS011;56520;49.066;8.660;2022-12-07T09:49:25;6.55;;;2.60;;
69358;SDS011;56520;49.066;8.660;2022-12-07T09:54:34;8.45;;;3.00;;
69358;SDS011;56520;49.066;8.660;2022-12-07T09:57:01;6.13;;;2.22;;
69358;SDS011;56520;49.066;8.660;2022-12-07T10:01:52;6.78;;;2.58;;
69358;SDS011;56520;49.066;8.660;2022-12-07T10:04:23;7.35;;;2.28;;
69358;SDS011;56520;49.066;8.660;2022-12-07T10:06:50;6.28;;;2.47;;
69358;SDS011;56520;49.066;8.660;2022-12-07T10:09:17;6.80;;;2.72;;
69358;SDS011;56520;49.066;8.660;2022-12-07T10:14:35;6.75;;;2.30;;
69358;SDS011;56520;49.066;8.660;2022-12-07T10:17:02;9.15;;;2.70;;
69358;SDS011;56520;49.066;8.660;2022-12-07T10:22:11;6.65;;;2.60;;
69358;SDS011;56520;49.066;8.660;2022-12-07T10:24:39;7.63;;;2.88;;
69358;SDS011;56520;49.066;8.660;2022-12-07T10:27:22;8.98;;;3.22;;
69358;SDS011;56520;49.066;8.660;2022-12-07T10:29:54;8.50;;;3.00;;
69358;SDS011;56520;49.066;8.660;2022-12-07T10:34:45;10.70;;;2.67;;
69358;SDS011;56520;49.066;8.660;2022-12-07T10:44:45;8.00;;;3.38;;
69358;SDS011;56520;49.066;8.660;2022-12-07T10:47:18;7.70;;;3.33;;
69358;SDS011;56520;49.066;8.660;2022-12-07T11:00:22;8.20;;;3.22;;
69358;SDS011;56520;49.066;8.660;2022-12-07T11:03:25;7.78;;;3.05;;
69358;SDS011;56520;49.066;8.660;2022-12-07T11:11:38;7.75;;;2.30;;
69358;SDS011;56520;49.066;8.660;2022-12-07T11:17:27;6.82;;;2.67;;
69358;SDS011;56520;49.066;8.660;2022-12-07T11:22:48;7.47;;;2.78;;
69358;SDS011;56520;49.066;8.660;2022-12-07T11:25:39;8.70;;;2.60;;
69358;SDS011;56520;49.066;8.660;2022-12-07T11:33:40;7.15;;;2.72;;
69358;SDS011;56520;49.066;8.660;2022-12-07T11:36:24;8.23;;;2.95;;
69358;SDS011;56520;49.066;8.660;2022-12-07T11:41:52;9.00;;;3.15;;
69358;SDS011;56520;49.066;8.660;2022-12-07T11:47:01;9.57;;;2.40;;
69358;SDS011;56520;49.066;8.660;2022-12-07T11:49:43;7.15;;;2.78;;
69358;SDS011;56520;49.066;8.660;2022-12-07T11:52:18;7.05;;;2.55;;
69358;SDS011;56520;49.066;8.660;2022-12-07T11:54:51;6.82;;;2.80;;
69358;SDS011;56520;49.066;8.660;2022-12-07T11:57:26;8.18;;;3.00;;
69358;SDS011;56520;49.066;8.660;2022-12-07T12:00:03;8.43;;;3.55;;
69358;SDS011;56520;49.066;8.660;2022-12-07T12:02:34;6.97;;;2.50;;
69358;SDS011;56520;49.066;8.660;2022-12-07T12:08:00;9.40;;;3.25;;
69358;SDS011;56520;49.066;8.660;2022-12-07T12:15:58;9.60;;;3.50;;
69358;SDS011;56520;49.066;8.660;2022-12-07T12:21:28;6.68;;;3.20;;
69358;SDS011;56520;49.066;8.660;2022-12-07T12:24:02;7.75;;;2.72;;
69358;SDS011;56520;49.066;8.660;2022-12-07T12:26:36;7.60;;;2.90;;
69358;SDS011;56520;49.066;8.660;2022-12-07T12:29:04;8.27;;;2.75;;
69358;SDS011;56520;49.066;8.660;2022-12-07T12:34:04;9.55;;;3.47;;
69358;SDS011;56520;49.066;8.660;2022-12-07T12:42:45;8.43;;;3.45;;
69358;SDS011;56520;49.066;8.660;2022-12-07T12:53:16;9.48;;;3.00;;
69358;SDS011;56520;49.066;8.660;2022-12-07T13:00:42;9.20;;;4.00;;
69358;SDS011;56520;49.066;8.660;2022-12-07T13:03:20;10.35;;;3.35;;
69358;SDS011;56520;49.066;8.660;2022-12-07T13:06:06;8.35;;;3.20;;
69358;SDS011;56520;49.066;8.660;2022-12-07T13:08:52;11.63;;;3.10;;
69358;SDS011;56520;49.066;8.660;2022-12-07T13:11:31;8.10;;;3.22;;
69358;SDS011;56520;49.066;8.660;2022-12-07T13:17:01;8.10;;;3.53;;
69358;SDS011;56520;49.066;8.660;2022-12-07T13:27:43;9.02;;;3.75;;
69358;SDS011;56520;49.066;8.660;2022-12-07T13:30:19;8.23;;;3.28;;
69358;SDS011;56520;49.066;8.660;2022-12-07T13:32:53;8.10;;;3.17;;
69358;SDS011;56520;49.066;8.660;2022-12-07T13:35:30;7.82;;;3.50;;
69358;SDS011;56520;49.066;8.660;2022-12-07T13:38:16;9.75;;;3.47;;
69358;SDS011;56520;49.066;8.660;2022-12-07T13:43:47;8.27;;;2.88;;
69358;SDS011;56520;49.066;8.660;2022-12-07T13:46:15;7.40;;;3.08;;
69358;SDS011;56520;49.066;8.660;2022-12-07T13:48:47;7.57;;;2.92;;
69358;SDS011;56520;49.066;8.660;2022-12-07T13:51:17;9.00;;;3.15;;
69358;SDS011;56520;49.066;8.660;2022-12-07T13:54:00;8.40;;;3.22;;
69358;SDS011;56520;49.066;8.660;2022-12-07T13:56:33;9.02;;;3.53;;
69358;SDS011;56520;49.066;8.660;2022-12-07T13:59:00;8.35;;;3.45;;
69358;SDS011;56520;49.066;8.660;2022-12-07T14:01:26;8.65;;;3.83;;
69358;SDS011;56520;49.066;8.660;2022-12-07T14:03:51;9.10;;;3.30;;
69358;SDS011;56520;49.066;8.660;2022-12-07T14:09:07;9.63;;;3.97;;
69358;SDS011;56520;49.066;8.660;2022-12-07T14:11:45;9.38;;;3.17;;
69358;SDS011;56520;49.066;8.660;2022-12-07T14:14:17;8.35;;;3.35;;
69358;SDS011;56520;49.066;8.660;2022-12-07T14:16:54;8.20;;;3.88;;
69358;SDS011;56520;49.066;8.660;2022-12-07T14:19:39;9.45;;;3.80;;
69358;SDS011;56520;49.066;8.660;2022-12-07T14:24:48;9.88;;;4.10;;
69358;SDS011;56520;49.066;8.660;2022-12-07T14:27:18;8.77;;;3.80;;
69358;SDS011;56520;49.066;8.660;2022-12-07T14:29:47;11.80;;;4.20;;
69358;SDS011;56520;49.066;8.660;2022-12-07T14:34:53;9.18;;;3.30;;
69358;SDS011;56520;49.066;8.660;2022-12-07T14:37:19;7.32;;;3.35;;
69358;SDS011;56520;49.066;8.660;2022-12-07T14:39:44;11.88;;;3.90;;
69358;SDS011;56520;49.066;8.660;2022-12-07T14:42:10;8.82;;;3.28;;
69358;SDS011;56520;49.066;8.660;2022-12-07T14:44:35;7.95;;;2.97;;
69358;SDS011;56520;49.066;8.660;2022-12-07T14:47:00;9.38;;;3.50;;
69358;SDS011;56520;49.066;8.660;2022-12-07T14:49:26;7.57;;;3.20;;
69358;SDS011;56520;49.066;8.660;2022-12-07T14:51:51;10.63;;;3.60;;
69358;SDS011;56520;49.066;8.660;2022-12-07T14:54:18;9.40;;;3.15;;
69358;SDS011;56520;49.066;8.660;2022-12-07T14:56:45;7.70;;;3.17;;
69358;SDS011;56520;49.066;8.660;2022-12-07T14:59:14;11.15;;;4.10;;
69358;SDS011;56520;49.066;8.660;2022-12-07T15:01:40;8.43;;;4.03;;
69358;SDS011;56520;49.066;8.660;2022-12-07T15:04:06;8.30;;;3.45;;
69358;SDS011;56520;49.066;8.660;2022-12-07T15:08:56;10.10;;;3.93;;
69358;SDS011;56520;49.066;8.660;2022-12-07T15:11:22;9.77;;;3.88;;
69358;SDS011;56520;49.066;8.660;2022-12-07T15:13:47;10.93;;;4.50;;
69358;SDS011;56520;49.066;8.660;2022-12-07T15:16:31;7.95;;;3.63;;
69358;SDS011;56520;49.066;8.660;2022-12-07T15:18:57;11.88;;;3.55;;
69358;SDS011;56520;49.066;8.660;2022-12-07T15:21:22;12.02;;;4.55;;
69358;SDS011;56520;49.066;8.660;2022-12-07T15:23:48;9.80;;;3.42;;
69358;SDS011;56520;49.066;8.660;2022-12-07T15:26:13;10.07;;;4.00;;
69358;SDS011;56520;49.066;8.660;2022-12-07T15:28:39;8.20;;;3.05;;
69358;SDS011;56520;49.066;8.660;2022-12-07T15:31:15;8.30;;;3.33;;
69358;SDS011;56520;49.066;8.660;2022-12-07T15:33:42;8.85;;;3.83;;
69358;SDS011;56520;49.066;8.660;2022-12-07T15:36:08;9.98;;;3.92;;
69358;SDS011;56520;49.066;8.660;2022-12-07T15:38:46;6.72;;;3.00;;
69358;SDS011;56520;49.066;8.660;2022-12-07T15:43:37;8.97;;;2.93;;
69358;SDS011;56520;49.066;8.660;2022-12-07T15:46:21;8.38;;;3.40;;
69358;SDS011;56520;49.066;8.660;2022-12-07T15:51:12;7.50;;;3.10;;
69358;SDS011;56520;49.066;8.660;2022-12-07T15:56:06;8.57;;;3.25;;
69358;SDS011;56520;49.066;8.660;2022-12-07T15:58:32;7.30;;;2.78;;
69358;SDS011;56520;49.066;8.660;2022-12-07T16:03:23;7.07;;;2.87;;
69358;SDS011;56520;49.066;8.660;2022-12-07T16:05:49;6.93;;;3.33;;
69358;SDS011;56520;49.066;8.660;2022-12-07T16:08:15;8.25;;;3.30;;
69358;SDS011;56520;49.066;8.660;2022-12-07T16:10:41;8.63;;;3.15;;
69358;SDS011;56520;49.066;8.660;2022-12-07T16:13:09;9.82;;;3.78;;
69358;SDS011;56520;49.066;8.660;2022-12-07T16:15:39;7.88;;;2.88;;
69358;SDS011;56520;49.066;8.660;2022-12-07T16:18:04;9.07;;;3.60;;
69358;SDS011;56520;49.066;8.660;2022-12-07T16:20:30;7.65;;;2.97;;
69358;SDS011;56520;49.066;8.660;2022-12-07T16:22:55;8.77;;;3.45;;
69358;SDS011;56520;49.066;8.660;2022-12-07T16:25:21;11.75;;;4.22;;
69358;SDS011;56520;49.066;8.660;2022-12-07T16:27:46;9.80;;;4.43;;
69358;SDS011;56520;49.066;8.660;2022-12-07T16:30:12;8.90;;;3.88;;
69358;SDS011;56520;49.066;8.660;2022-12-07T16:32:38;6.95;;;3.03;;
69358;SDS011;56520;49.066;8.660;2022-12-07T16:35:04;9.25;;;3.72;;
69358;SDS011;56520;49.066;8.660;2022-12-07T16:37:32;8.68;;;3.60;;
69358;SDS011;56520;49.066;8.660;2022-12-07T16:39:58;9.70;;;4.25;;
69358;SDS011;56520;49.066;8.660;2022-12-07T16:42:23;9.15;;;3.63;;
69358;SDS011;56520;49.066;8.660;2022-12-07T16:44:49;7.60;;;3.20;;
69358;SDS011;56520;49.066;8.660;2022-12-07T16:47:14;7.03;;;3.22;;
69358;SDS011;56520;49.066;8.660;2022-12-07T16:49:39;9.52;;;4.13;;
69358;SDS011;56520;49.066;8.660;2022-12-07T16:52:05;10.13;;;4.20;;
69358;SDS011;56520;49.066;8.660;2022-12-07T16:54:30;9.45;;;3.60;;
69358;SDS011;56520;49.066;8.660;2022-12-07T16:56:58;10.20;;;4.30;;
69358;SDS011;56520;49.066;8.660;2022-12-07T16:59:23;12.52;;;4.85;;
69358;SDS011;56520;49.066;8.660;2022-12-07T17:01:49;10.20;;;4.18;;
69358;SDS011;56520;49.066;8.660;2022-12-07T17:04:14;8.82;;;3.90;;
69358;SDS011;56520;49.066;8.660;2022-12-07T17:06:39;7.40;;;3.28;;
69358;SDS011;56520;49.066;8.660;2022-12-07T17:09:05;7.32;;;3.38;;
69358;SDS011;56520;49.066;8.660;2022-12-07T17:11:34;11.23;;;3.92;;
69358;SDS011;56520;49.066;8.660;2022-12-07T17:13:59;8.00;;;3.55;;
69358;SDS011;56520;49.066;8.660;2022-12-07T17:16:43;7.07;;;3.45;;
69358;SDS011;56520;49.066;8.660;2022-12-07T17:21:36;7.43;;;3.30;;
69358;SDS011;56520;49.066;8.660;2022-12-07T17:26:28;6.78;;;2.67;;
69358;SDS011;56520;49.066;8.660;2022-12-07T17:28:54;8.73;;;3.35;;
69358;SDS011;56520;49.066;8.660;2022-12-07T17:31:23;7.88;;;3.03;;
69358;SDS011;56520;49.066;8.660;2022-12-07T17:33:49;7.07;;;2.97;;
69358;SDS011;56520;49.066;8.660;2022-12-07T17:38:45;11.35;;;3.70;;
69358;SDS011;56520;49.066;8.660;2022-12-07T17:41:13;7.82;;;3.05;;
69358;SDS011;56520;49.066;8.660;2022-12-07T17:43:59;8.95;;;3.53;;
69358;SDS011;56520;49.066;8.660;2022-12-07T17:46:25;7.13;;;2.95;;
69358;SDS011;56520;49.066;8.660;2022-12-07T17:48:53;8.73;;;3.47;;
69358;SDS011;56520;49.066;8.660;2022-12-07T17:51:19;7.28;;;2.78;;
69358;SDS011;56520;49.066;8.660;2022-12-07T17:54:03;6.88;;;3.47;;
69358;SDS011;56520;49.066;8.660;2022-12-07T17:58:53;10.65;;;4.18;;
69358;SDS011;56520;49.066;8.660;2022-12-07T18:01:19;8.48;;;3.70;;
69358;SDS011;56520;49.066;8.660;2022-12-07T18:06:09;9.70;;;3.20;;
69358;SDS011;56520;49.066;8.660;2022-12-07T18:11:02;7.55;;;3.38;;
69358;SDS011;56520;49.066;8.660;2022-12-07T18:13:29;7.60;;;3.67;;
69358;SDS011;56520;49.066;8.660;2022-12-07T18:16:01;6.60;;;3.60;;
69358;SDS011;56520;49.066;8.660;2022-12-07T18:18:28;8.80;;;3.67;;
69358;SDS011;56520;49.066;8.660;2022-12-07T18:20:53;7.20;;;3.33;;
69358;SDS011;56520;49.066;8.660;2022-12-07T18:23:19;7.65;;;3.90;;
69358;SDS011;56520;49.066;8.660;2022-12-07T18:25:48;8.73;;;3.40;;
69358;SDS011;56520;49.066;8.660;2022-12-07T18:28:14;8.23;;;3.45;;
69358;SDS011;56520;49.066;8.660;2022-12-07T18:30:40;7.03;;;2.92;;
69358;SDS011;56520;49.066;8.660;2022-12-07T18:35:31;9.33;;;4.40;;
69358;SDS011;56520;49.066;8.660;2022-12-07T18:38:01;8.25;;;3.28;;
69358;SDS011;56520;49.066;8.660;2022-12-07T18:40:26;6.82;;;3.05;;
69358;SDS011;56520;49.066;8.660;2022-12-07T18:42:52;7.55;;;3.17;;
69358;SDS011;56520;49.066;8.660;2022-12-07T18:45:17;8.15;;;2.45;;
69358;SDS011;56520;49.066;8.660;2022-12-07T18:47:43;8.93;;;3.80;;
69358;SDS011;56520;49.066;8.660;2022-12-07T18:50:08;5.32;;;2.03;;
69358;SDS011;56520;49.066;8.660;2022-12-07T18:52:34;7.45;;;3.08;;
69358;SDS011;56520;49.066;8.660;2022-12-07T18:57:26;5.88;;;2.90;;
69358;SDS011;56520;49.066;8.660;2022-12-07T18:59:52;8.30;;;3.15;;
69358;SDS011;56520;49.066;8.660;2022-12-07T19:02:18;9.25;;;3.85;;
69358;SDS011;56520;49.066;8.660;2022-12-07T19:04:45;9.52;;;4.10;;
69358;SDS011;56520;49.066;8.660;2022-12-07T19:07:11;12.10;;;4.15;;
69358;SDS011;56520;49.066;8.660;2022-12-07T19:09:37;9.32;;;3.40;;
69358;SDS011;56520;49.066;8.660;2022-12-07T19:12:02;8.15;;;3.83;;
69358;SDS011;56520;49.066;8.660;2022-12-07T19:14:33;7.55;;;3.42;;
69358;SDS011;56520;49.066;8.660;2022-12-07T19:17:03;8.15;;;3.00;;
69358;SDS011;56520;49.066;8.660;2022-12-07T19:19:35;10.95;;;3.20;;
69358;SDS011;56520;49.066;8.660;2022-12-07T19:22:02;7.13;;;3.05;;
69358;SDS011;56520;49.066;8.660;2022-12-07T19:24:28;9.13;;;3.33;;
69358;SDS011;56520;49.066;8.660;2022-12-07T19:26:54;8.90;;;3.42;;
69358;SDS011;56520;49.066;8.660;2022-12-07T19:29:21;11.27;;;4.00;;
69358;SDS011;56520;49.066;8.660;2022-12-07T19:31:46;11.95;;;4.40;;
69358;SDS011;56520;49.066;8.660;2022-12-07T19:36:40;7.72;;;2.80;;
69358;SDS011;56520;49.066;8.660;2022-12-07T19:41:31;6.22;;;2.40;;
69358;SDS011;56520;49.066;8.660;2022-12-07T19:44:06;8.18;;;3.13;;
69358;SDS011;56520;49.066;8.660;2022-12-07T19:46:35;8.45;;;3.13;;
69358;SDS011;56520;49.066;8.660;2022-12-07T19:51:27;6.15;;;2.15;;
69358;SDS011;56520;49.066;8.660;2022-12-07T19:53:54;6.90;;;2.88;;
69358;SDS011;56520;49.066;8.660;2022-12-07T19:56:21;6.72;;;2.97;;
69358;SDS011;56520;49.066;8.660;2022-12-07T20:01:12;8.85;;;3.55;;
69358;SDS011;56520;49.066;8.660;2022-12-07T20:03:38;8.10;;;3.58;;